Time;durP1;ratioP1;P1;durP2;ratioP2;P2;SDS_P1;SDS_P2;PMS_P1;PMS_P2;Temp;Humidity;BMP_temperature;BMP_pressure;BME280_temperature;BME280_humidity;BME280_pressure;Samples;Min_cycle;Max_cycle;Signal;HPM_P1;HPM_P2
2021/12/31 00:01:49;;;;;;;4.57;3.43;;;;;;;8.72;85.15;100294.28;4934809;29;20230;-90
2021/12/31 00:04:15;;;;;;;3.90;3.37;;;;;;;8.71;85.14;100292.59;4935221;28;20209;-90
2021/12/31 00:06:44;;;;;;;4.70;4.23;;;;;;;8.67;85.13;100288.41;4935003;28;20204;-90
2021/12/31 00:09:09;;;;;;;4.82;4.22;;;;;;;8.63;85.24;100290.31;4933075;28;20216;-89
2021/12/31 00:11:35;;;;;;;5.00;4.60;;;;;;;8.60;85.10;100285.22;4935825;28;20271;-90
2021/12/31 00:14:19;;;;;;;4.38;3.40;;;;;;;8.57;85.16;100291.44;5076766;27;21319;-75
2021/12/31 00:16:45;;;;;;;3.85;3.30;;;;;;;8.52;85.13;100282.94;5080420;28;20211;-75
2021/12/31 00:19:11;;;;;;;5.20;3.93;;;;;;;8.47;85.12;100290.16;5079770;28;21168;-75
2021/12/31 00:21:37;;;;;;;5.10;3.88;;;;;;;8.42;85.26;100289.50;5043126;22;20265;-79
2021/12/31 00:24:03;;;;;;;5.77;4.63;;;;;;;8.38;85.43;100291.38;5019084;28;20481;-79
2021/12/31 00:26:29;;;;;;;4.78;4.28;;;;;;;8.35;85.44;100291.50;5029470;28;20467;-79
2021/12/31 00:28:54;;;;;;;6.00;4.30;;;;;;;8.31;85.65;100289.09;5012464;28;20239;-79
2021/12/31 00:31:19;;;;;;;5.90;4.73;;;;;;;8.29;85.26;100283.94;4993138;28;20542;-79
2021/12/31 00:33:45;;;;;;;4.63;4.13;;;;;;;8.26;85.34;100291.03;5007204;28;20217;-78
2021/12/31 00:36:10;;;;;;;5.70;4.50;;;;;;;8.22;85.39;100284.25;5007074;28;20686;-78
2021/12/31 00:38:36;;;;;;;7.03;4.67;;;;;;;8.20;85.35;100282.53;5008086;28;20208;-78
2021/12/31 00:41:02;;;;;;;8.20;5.77;;;;;;;8.16;85.36;100275.75;5005636;28;20218;-78
2021/12/31 00:43:27;;;;;;;6.00;4.50;;;;;;;8.12;85.35;100281.16;5006839;28;20194;-77
2021/12/31 00:45:52;;;;;;;4.80;3.77;;;;;;;8.07;85.35;100276.13;5007823;28;20653;-78
2021/12/31 00:48:18;;;;;;;6.00;4.17;;;;;;;8.05;85.42;100275.38;5003727;28;20210;-78
2021/12/31 00:50:43;;;;;;;3.60;2.90;;;;;;;8.01;85.32;100265.94;5008087;28;20364;-79
2021/12/31 00:53:09;;;;;;;4.80;2.70;;;;;;;7.98;85.23;100279.16;5006055;28;20245;-79
2021/12/31 00:55:35;;;;;;;3.20;2.90;;;;;;;7.93;85.50;100279.31;5009397;28;20206;-78
2021/12/31 00:58:01;;;;;;;3.47;2.50;;;;;;;7.90;85.56;100276.84;5010632;28;20206;-78
2021/12/31 01:00:28;;;;;;;3.27;2.40;;;;;;;7.87;85.70;100276.13;5010222;28;20320;-78
2021/12/31 01:02:53;;;;;;;2.47;2.03;;;;;;;7.87;85.70;100274.38;5006003;28;20202;-78
2021/12/31 01:05:19;;;;;;;2.33;2.13;;;;;;;7.85;85.52;100280.56;5010576;28;20210;-79
2021/12/31 01:07:45;;;;;;;3.63;2.37;;;;;;;7.84;85.58;100271.88;5006550;28;20286;-79
2021/12/31 01:10:14;;;;;;;16.20;3.23;;;;;;;7.79;85.50;100260.75;5005952;28;20226;-79
2021/12/31 01:12:40;;;;;;;4.82;2.90;;;;;;;7.75;85.45;100262.66;5001839;28;20507;-79
2021/12/31 01:15:11;;;;;;;2.75;2.50;;;;;;;7.72;85.33;100269.75;5017458;28;20265;-78
2021/12/31 01:17:47;;;;;;;2.35;1.60;;;;;;;7.66;85.35;100265.63;5011287;28;20221;-78
2021/12/31 01:20:14;;;;;;;4.03;2.03;;;;;;;7.63;85.65;100264.91;5014416;28;20647;-78
2021/12/31 01:22:41;;;;;;;2.53;1.83;;;;;;;7.62;85.42;100263.22;5008429;28;20333;-78
2021/12/31 01:25:07;;;;;;;2.03;1.88;;;;;;;7.60;85.53;100262.44;4999877;28;20218;-78
2021/12/31 01:27:34;;;;;;;2.70;1.73;;;;;;;7.58;85.33;100262.47;4996885;28;20611;-79
2021/12/31 01:30:00;;;;;;;3.15;1.95;;;;;;;7.54;85.27;100266.16;4997802;28;20771;-79
2021/12/31 01:32:26;;;;;;;1.80;1.37;;;;;;;7.48;85.32;100262.03;4995033;28;20238;-78
2021/12/31 01:34:51;;;;;;;1.88;1.55;;;;;;;7.46;85.41;100269.06;4998940;28;20988;-78
2021/12/31 01:37:17;;;;;;;4.60;2.77;;;;;;;7.44;85.46;100264.81;4997894;28;20256;-78
2021/12/31 01:39:42;;;;;;;2.77;2.40;;;;;;;7.43;85.39;100263.13;4998562;28;20211;-78
2021/12/31 01:42:17;;;;;;;4.03;2.83;;;;;;;7.42;85.38;100259.63;4993615;28;20334;-79
2021/12/31 01:44:52;;;;;;;5.85;2.08;;;;;;;7.40;85.29;100253.66;4997714;28;20230;-79
2021/12/31 01:47:22;;;;;;;2.53;2.20;;;;;;;7.38;85.37;100259.84;4995666;28;20209;-78
2021/12/31 01:49:56;;;;;;;4.10;3.42;;;;;;;7.36;85.25;100253.81;4993919;28;20202;-79
2021/12/31 01:52:23;;;;;;;3.05;2.20;;;;;;;7.30;85.16;100250.53;4991173;28;20219;-78
2021/12/31 01:54:49;;;;;;;4.50;2.97;;;;;;;7.25;85.39;100254.25;4993680;28;20916;-78
2021/12/31 01:57:15;;;;;;;2.10;2.00;;;;;;;7.20;85.21;100251.81;4994034;28;20714;-79
2021/12/31 01:59:41;;;;;;;2.17;1.77;;;;;;;7.17;85.46;100241.47;5008301;28;20381;-78
2021/12/31 02:02:08;;;;;;;1.75;1.65;;;;;;;7.13;85.30;100250.38;5003453;28;20234;-79
2021/12/31 02:04:36;;;;;;;3.08;2.13;;;;;;;7.09;85.54;100257.44;4996514;28;21062;-78
2021/12/31 02:07:01;;;;;;;2.67;2.10;;;;;;;7.05;85.26;100250.66;4996183;28;20725;-78
2021/12/31 02:09:28;;;;;;;2.10;1.60;;;;;;;7.00;85.34;100249.97;4999313;28;20207;-77
2021/12/31 02:11:55;;;;;;;3.30;1.63;;;;;;;6.94;85.65;100250.22;4996413;28;20230;-77
2021/12/31 02:14:21;;;;;;;2.78;1.70;;;;;;;6.93;85.46;100263.31;4997143;28;20220;-77
2021/12/31 02:16:47;;;;;;;1.73;1.30;;;;;;;6.88;85.45;100250.44;4998609;28;20199;-78
2021/12/31 02:19:25;;;;;;;2.10;1.30;;;;;;;6.86;85.51;100245.28;4996030;28;20203;-78
2021/12/31 02:21:51;;;;;;;2.67;2.00;;;;;;;6.83;85.52;100253.25;4994691;28;20394;-78
2021/12/31 02:24:18;;;;;;;2.70;1.70;;;;;;;6.80;85.72;100248.13;4996018;28;20203;-78
2021/12/31 02:26:43;;;;;;;2.30;2.10;;;;;;;6.77;85.74;100248.22;4995680;28;20221;-78
2021/12/31 02:29:09;;;;;;;2.60;1.70;;;;;;;6.76;85.61;100246.53;4997460;28;20203;-78
2021/12/31 02:31:34;;;;;;;2.50;1.77;;;;;;;6.76;85.92;100243.94;4994145;28;20643;-78
2021/12/31 02:34:00;;;;;;;1.40;1.27;;;;;;;6.75;85.64;100239.63;4995746;28;20227;-78
2021/12/31 02:36:25;;;;;;;2.03;1.80;;;;;;;6.75;85.40;100236.16;4996678;28;20741;-78
2021/12/31 02:38:50;;;;;;;2.97;1.80;;;;;;;6.74;85.44;100234.44;4995787;28;20695;-78
2021/12/31 02:41:16;;;;;;;1.40;1.30;;;;;;;6.73;85.52;100236.22;4991537;28;20242;-78
2021/12/31 02:43:42;;;;;;;1.43;1.33;;;;;;;6.71;85.72;100243.25;4991349;28;20969;-78
2021/12/31 02:46:07;;;;;;;1.60;1.50;;;;;;;6.69;85.39;100237.22;4989295;28;20615;-78
2021/12/31 02:48:33;;;;;;;3.67;1.57;;;;;;;6.66;85.51;100229.50;4991627;28;20345;-79
2021/12/31 02:51:01;;;;;;;3.63;1.87;;;;;;;6.62;85.54;100227.94;4992629;28;20465;-78
2021/12/31 02:53:34;;;;;;;3.25;1.85;;;;;;;6.61;85.71;100223.63;4998525;28;20756;-79
2021/12/31 02:56:03;;;;;;;2.00;1.80;;;;;;;6.60;85.50;100229.75;5002984;28;20245;-78
2021/12/31 02:58:29;;;;;;;3.63;2.28;;;;;;;6.58;85.26;100229.78;5002704;28;20257;-79
2021/12/31 03:00:55;;;;;;;1.85;1.48;;;;;;;6.58;85.51;100236.78;5006236;28;20263;-78
2021/12/31 03:03:22;;;;;;;1.77;1.60;;;;;;;6.57;85.44;100230.72;5002822;28;20206;-77
2021/12/31 03:05:50;;;;;;;2.13;1.90;;;;;;;6.57;85.13;100224.66;5001454;28;20203;-78
2021/12/31 03:08:17;;;;;;;3.20;2.40;;;;;;;6.56;85.52;100225.53;5007093;28;20419;-77
2021/12/31 03:10:44;;;;;;;3.92;2.33;;;;;;;6.54;85.07;100224.78;5006624;28;20313;-78
2021/12/31 03:13:09;;;;;;;2.45;2.05;;;;;;;6.50;85.40;100217.94;4999988;28;20319;-77
2021/12/31 03:15:36;;;;;;;2.30;2.10;;;;;;;6.47;85.37;100213.69;5004520;28;20800;-78
2021/12/31 03:18:03;;;;;;;3.65;2.30;;;;;;;6.44;85.06;100198.16;4997572;28;20271;-78
2021/12/31 03:20:42;;;;;;;2.72;2.40;;;;;;;6.41;85.49;100195.66;5006732;28;20646;-78
2021/12/31 03:23:08;;;;;;;3.85;2.13;;;;;;;6.41;85.35;100198.25;5005122;28;20202;-78
2021/12/31 03:25:34;;;;;;;2.33;2.13;;;;;;;6.40;85.54;100196.56;4992836;28;20198;-78
2021/12/31 03:28:00;;;;;;;2.10;1.77;;;;;;;6.39;85.06;100187.03;5005141;28;20461;-78
2021/12/31 03:30:26;;;;;;;3.13;2.07;;;;;;;6.38;85.26;100182.72;5004099;28;20318;-78
2021/12/31 03:32:52;;;;;;;2.43;2.00;;;;;;;6.39;85.86;100179.19;5006575;28;20849;-78
2021/12/31 03:35:18;;;;;;;6.63;2.50;;;;;;;6.34;85.59;100181.97;5010864;28;20229;-78
2021/12/31 03:37:43;;;;;;;2.80;1.90;;;;;;;6.33;85.42;100179.44;5008574;28;20708;-78
2021/12/31 03:40:09;;;;;;;2.00;1.80;;;;;;;6.28;85.45;100171.78;5006222;28;20298;-78
2021/12/31 03:42:35;;;;;;;2.17;1.80;;;;;;;6.25;85.95;100178.88;5009219;28;20210;-79
2021/12/31 03:45:00;;;;;;;2.50;1.47;;;;;;;6.21;85.23;100175.50;5009391;28;20252;-79
2021/12/31 03:47:26;;;;;;;2.10;1.97;;;;;;;6.15;85.37;100186.16;5004621;28;20222;-79
2021/12/31 03:49:51;;;;;;;8.10;1.80;;;;;;;6.14;85.64;100184.47;5003665;28;20271;-79
2021/12/31 03:52:17;;;;;;;3.10;2.23;;;;;;;6.12;85.57;100181.91;5006619;28;20362;-79
2021/12/31 03:54:42;;;;;;;2.77;2.00;;;;;;;6.14;85.81;100180.09;5004596;28;20576;-78
2021/12/31 03:57:07;;;;;;;2.70;1.70;;;;;;;6.15;85.60;100189.63;5006100;28;20265;-79
2021/12/31 03:59:33;;;;;;;2.10;1.70;;;;;;;6.17;86.23;100182.59;5002977;28;20640;-78
2021/12/31 04:01:58;;;;;;;2.73;1.60;;;;;;;6.18;85.91;100186.06;4982558;28;20206;-78
2021/12/31 04:04:24;;;;;;;3.20;2.23;;;;;;;6.16;85.79;100169.63;5000950;28;20725;-78
2021/12/31 04:06:49;;;;;;;1.80;1.70;;;;;;;6.15;85.71;100176.56;5004101;28;20643;-78
2021/12/31 04:09:15;;;;;;;2.10;1.90;;;;;;;6.15;85.85;100171.34;5006850;28;20229;-78
2021/12/31 04:11:40;;;;;;;3.17;1.90;;;;;;;6.14;86.10;100168.81;5006013;28;20218;-79
2021/12/31 04:14:05;;;;;;;2.57;1.90;;;;;;;6.14;85.92;100161.00;5000200;28;20691;-78
2021/12/31 04:16:32;;;;;;;2.00;1.77;;;;;;;6.10;85.59;100159.41;4999117;28;20198;-79
2021/12/31 04:18:57;;;;;;;2.00;1.45;;;;;;;6.06;85.99;100161.28;5007235;28;20238;-78
2021/12/31 04:21:24;;;;;;;2.23;1.60;;;;;;;5.98;85.48;100168.53;5003891;28;20261;-78
2021/12/31 04:23:53;;;;;;;2.45;2.15;;;;;;;5.95;86.14;100163.41;4964466;28;20370;-78
2021/12/31 04:26:19;;;;;;;2.10;1.90;;;;;;;5.89;86.09;100163.63;4969403;28;20684;-79
2021/12/31 04:28:45;;;;;;;1.50;1.40;;;;;;;5.82;86.20;100165.56;4967031;28;20208;-78
2021/12/31 04:31:11;;;;;;;2.47;1.83;;;;;;;5.76;86.20;100157.97;4966524;28;20471;-78
2021/12/31 04:33:37;;;;;;;1.90;1.70;;;;;;;5.72;86.26;100161.56;4967344;28;20530;-78
2021/12/31 04:36:03;;;;;;;3.10;1.90;;;;;;;5.73;86.14;100171.13;4989778;28;20209;-78
2021/12/31 04:38:28;;;;;;;3.37;1.80;;;;;;;5.74;86.09;100157.16;4982996;28;21088;-78
2021/12/31 04:40:54;;;;;;;2.27;1.57;;;;;;;5.73;86.27;100158.94;4967875;28;20846;-78
2021/12/31 04:43:19;;;;;;;1.63;1.43;;;;;;;5.73;86.17;100168.50;4964736;28;20208;-77
2021/12/31 04:45:45;;;;;;;3.00;1.70;;;;;;;5.72;86.05;100169.41;4959260;28;20952;-77
2021/12/31 04:48:10;;;;;;;2.80;2.60;;;;;;;5.72;86.31;100183.28;4958900;28;20259;-78
2021/12/31 04:50:35;;;;;;;3.20;2.70;;;;;;;5.74;86.01;100180.63;4964528;28;20339;-77
2021/12/31 04:53:04;;;;;;;2.77;2.23;;;;;;;5.74;86.31;100170.19;4968986;28;20236;-78
2021/12/31 04:55:29;;;;;;;2.85;2.40;;;;;;;5.76;86.32;100157.97;4968956;28;20312;-78
2021/12/31 04:57:55;;;;;;;4.90;2.43;;;;;;;5.77;86.20;100162.28;4967122;28;20216;-78
2021/12/31 05:00:20;;;;;;;8.20;2.87;;;;;;;5.79;85.94;100157.88;4961943;28;20224;-77
2021/12/31 05:02:46;;;;;;;3.83;1.90;;;;;;;5.80;85.91;100159.56;4963810;28;20196;-77
2021/12/31 05:05:11;;;;;;;6.23;2.10;;;;;;;5.81;86.33;100163.88;4968122;28;20711;-77
2021/12/31 05:07:37;;;;;;;2.33;1.90;;;;;;;5.80;85.91;100161.31;4969824;28;20227;-77
2021/12/31 05:10:03;;;;;;;4.97;3.20;;;;;;;5.79;86.56;100172.66;4969535;28;20814;-76
2021/12/31 05:12:31;;;;;;;2.80;2.50;;;;;;;5.77;85.91;100175.31;4971972;28;21017;-77
2021/12/31 05:14:57;;;;;;;4.63;2.50;;;;;;;5.77;86.51;100181.38;4971011;28;20466;-77
2021/12/31 05:17:22;;;;;;;3.87;2.40;;;;;;;5.79;86.16;100188.31;4970896;28;20666;-77
2021/12/31 05:19:48;;;;;;;3.47;2.93;;;;;;;5.79;86.29;100188.31;4969506;28;20699;-78
2021/12/31 05:22:14;;;;;;;8.77;4.07;;;;;;;5.81;86.43;100181.28;4973531;28;20623;-76
2021/12/31 05:24:40;;;;;;;5.20;4.22;;;;;;;5.82;86.24;100178.59;4968794;28;20641;-77
2021/12/31 05:27:07;;;;;;;5.85;3.67;;;;;;;5.81;86.26;100182.13;4968132;28;20267;-77
2021/12/31 05:29:34;;;;;;;3.33;2.33;;;;;;;5.80;86.18;100184.78;4970083;28;20212;-77
2021/12/31 05:32:00;;;;;;;4.30;3.28;;;;;;;5.84;86.73;100176.81;4972964;28;20485;-77
2021/12/31 05:34:26;;;;;;;4.50;2.73;;;;;;;5.81;86.17;100181.28;4972060;28;20753;-76
2021/12/31 05:36:51;;;;;;;3.23;2.70;;;;;;;5.77;85.80;100185.72;4971437;28;20201;-78
2021/12/31 05:39:17;;;;;;;6.13;3.20;;;;;;;5.72;86.20;100172.00;4968993;28;20439;-77
2021/12/31 05:41:42;;;;;;;2.87;2.07;;;;;;;5.70;86.43;100173.84;4969568;28;20776;-78
2021/12/31 05:44:08;;;;;;;4.03;1.80;;;;;;;5.66;86.04;100183.50;4970434;28;20204;-77
2021/12/31 05:46:34;;;;;;;2.88;2.25;;;;;;;5.62;86.25;100174.09;4969340;28;20208;-78
2021/12/31 05:49:00;;;;;;;3.13;1.90;;;;;;;5.57;86.18;100178.59;4970541;28;20219;-77
2021/12/31 05:51:27;;;;;;;2.95;2.63;;;;;;;5.52;86.37;100168.34;4970295;28;20854;-78
2021/12/31 05:53:53;;;;;;;2.50;1.70;;;;;;;5.49;86.15;100168.44;4962666;28;20224;-76
2021/12/31 05:56:19;;;;;;;3.78;2.05;;;;;;;5.48;86.05;100173.69;4967083;28;20745;-78
2021/12/31 05:58:44;;;;;;;2.90;1.60;;;;;;;5.48;85.78;100171.09;4960692;28;20301;-78
2021/12/31 06:01:10;;;;;;;3.33;2.07;;;;;;;5.43;86.10;100176.47;4960047;28;20247;-77
2021/12/31 06:03:35;;;;;;;3.57;1.90;;;;;;;5.41;86.23;100173.06;4961223;28;20196;-76
2021/12/31 06:06:01;;;;;;;2.17;1.67;;;;;;;5.40;86.40;100171.38;4965246;28;20618;-77
2021/12/31 06:08:26;;;;;;;4.93;1.70;;;;;;;5.41;86.16;100167.00;4963153;28;20722;-76
2021/12/31 06:10:52;;;;;;;1.70;1.43;;;;;;;5.42;86.20;100176.50;4962004;28;20223;-78
2021/12/31 06:13:18;;;;;;;2.17;1.93;;;;;;;5.43;86.17;100179.06;4961146;28;20613;-78
2021/12/31 06:15:46;;;;;;;1.80;1.70;;;;;;;5.44;86.10;100192.94;4960919;28;20295;-77
2021/12/31 06:18:12;;;;;;;2.75;1.70;;;;;;;5.42;86.19;100185.16;4964956;28;20971;-77
2021/12/31 06:20:37;;;;;;;1.50;1.40;;;;;;;5.41;86.03;100180.03;5008739;23;20673;-76
2021/12/31 06:23:03;;;;;;;1.73;1.40;;;;;;;5.38;85.84;100178.38;4997702;28;20876;-76
2021/12/31 06:25:29;;;;;;;1.63;1.53;;;;;;;5.36;86.21;100181.94;4999867;28;20230;-76
2021/12/31 06:27:54;;;;;;;2.10;1.93;;;;;;;5.33;85.73;100181.13;5008250;28;20217;-76
2021/12/31 06:30:20;;;;;;;1.40;1.30;;;;;;;5.29;85.95;100182.13;5012254;28;20211;-76
2021/12/31 06:32:45;;;;;;;2.43;1.90;;;;;;;5.20;85.69;100184.19;5005832;28;20285;-76
2021/12/31 06:35:11;;;;;;;1.97;1.43;;;;;;;5.10;86.00;100199.22;5011633;28;20478;-75
2021/12/31 06:37:37;;;;;;;2.80;1.90;;;;;;;5.02;86.01;100183.88;5007326;28;20383;-76
2021/12/31 06:40:05;;;;;;;1.70;1.60;;;;;;;4.94;86.11;100177.19;5011922;28;20694;-76
2021/12/31 06:42:33;;;;;;;3.15;1.98;;;;;;;4.90;86.70;100180.81;5008402;28;20710;-76
2021/12/31 06:44:59;;;;;;;3.42;1.60;;;;;;;4.87;86.72;100172.19;5007524;28;20396;-76
2021/12/31 06:47:24;;;;;;;2.77;1.60;;;;;;;4.87;86.67;100172.19;5005908;28;20686;-75
2021/12/31 06:49:50;;;;;;;6.20;3.33;;;;;;;4.90;86.65;100175.59;5007697;28;20195;-75
2021/12/31 06:52:15;;;;;;;7.37;5.03;;;;;;;4.91;86.81;100178.13;5011283;28;20272;-76
2021/12/31 06:54:40;;;;;;;6.60;3.80;;;;;;;4.92;86.55;100177.25;5007273;28;20261;-76
2021/12/31 06:57:06;;;;;;;5.17;3.93;;;;;;;4.92;86.75;100181.63;5010825;28;20695;-76
2021/12/31 06:59:31;;;;;;;6.00;2.83;;;;;;;4.93;86.89;100181.53;5008595;28;20709;-75
2021/12/31 07:01:57;;;;;;;1.80;1.70;;;;;;;4.88;86.86;100180.84;5006353;28;20210;-76
2021/12/31 07:04:23;;;;;;;1.33;1.10;;;;;;;4.80;86.83;100175.00;5005626;28;20191;-75
2021/12/31 07:06:49;;;;;;;1.23;1.00;;;;;;;4.74;86.80;100175.22;5010752;28;20481;-76
2021/12/31 07:09:14;;;;;;;1.10;1.00;;;;;;;4.70;86.75;100182.28;5011015;28;20234;-76
2021/12/31 07:11:40;;;;;;;1.70;1.40;;;;;;;4.69;86.91;100175.34;5002795;28;20244;-75
2021/12/31 07:14:05;;;;;;;1.17;0.97;;;;;;;4.69;86.99;100177.09;5004117;28;20231;-75
2021/12/31 07:16:30;;;;;;;1.67;1.50;;;;;;;4.67;86.83;100177.13;5003442;28;20206;-75
2021/12/31 07:18:56;;;;;;;1.20;1.10;;;;;;;4.66;86.85;100172.84;5008968;28;20717;-76
2021/12/31 07:21:21;;;;;;;1.30;1.20;;;;;;;4.69;87.11;100177.09;5009670;28;20308;-76
2021/12/31 07:23:47;;;;;;;1.63;1.53;;;;;;;4.71;86.85;100180.50;5006684;28;20291;-76
2021/12/31 07:26:12;;;;;;;1.43;1.23;;;;;;;4.71;86.77;100180.50;5008536;28;20218;-68
2021/12/31 07:28:37;;;;;;;3.23;2.13;;;;;;;4.71;86.77;100180.50;5011226;28;20236;-76
2021/12/31 07:31:03;;;;;;;2.60;2.13;;;;;;;4.71;86.64;100186.56;5006669;28;20203;-75
2021/12/31 07:33:28;;;;;;;2.23;1.70;;;;;;;4.71;86.80;100188.31;5008603;28;20230;-75
2021/12/31 07:35:54;;;;;;;2.73;1.90;;;;;;;4.73;86.91;100189.13;5015290;28;20233;-75
2021/12/31 07:38:35;;;;;;;2.17;1.70;;;;;;;4.75;86.58;100187.31;5018472;28;20210;-75
2021/12/31 07:41:02;;;;;;;2.13;1.88;;;;;;;4.75;86.60;100179.50;5012893;28;20218;-75
2021/12/31 07:43:28;;;;;;;3.95;2.25;;;;;;;4.77;86.76;100181.16;5016371;28;20193;-75
2021/12/31 07:45:54;;;;;;;6.20;2.20;;;;;;;4.80;86.69;100177.63;5019883;28;20556;-76
2021/12/31 07:48:20;;;;;;;3.17;2.42;;;;;;;4.79;86.48;100168.13;5013324;28;20203;-75
2021/12/31 07:50:46;;;;;;;5.35;2.97;;;;;;;4.80;86.60;100181.06;5002867;28;20230;-76
2021/12/31 07:53:12;;;;;;;2.60;2.40;;;;;;;4.80;86.58;100180.22;5002943;28;20774;-75
2021/12/31 07:55:37;;;;;;;1.93;1.83;;;;;;;4.81;86.56;100176.75;5004474;28;20217;-75
2021/12/31 07:58:05;;;;;;;2.90;2.60;;;;;;;4.85;86.70;100186.13;5001577;28;20229;-76
2021/12/31 08:00:31;;;;;;;4.35;2.20;;;;;;;4.88;86.67;100189.50;5002978;28;20204;-75
2021/12/31 08:02:57;;;;;;;4.10;3.80;;;;;;;4.90;86.46;100191.22;5003050;28;20206;-74
2021/12/31 08:05:24;;;;;;;4.70;3.75;;;;;;;4.92;86.58;100189.41;5004825;28;20457;-75
2021/12/31 08:07:50;;;;;;;4.05;3.75;;;;;;;4.94;86.61;100190.19;4999507;28;20286;-75
2021/12/31 08:10:15;;;;;;;4.37;3.97;;;;;;;4.95;86.78;100197.97;5003528;28;20435;-75
2021/12/31 08:12:41;;;;;;;3.70;3.17;;;;;;;4.95;86.62;100202.34;5004244;28;20291;-75
2021/12/31 08:15:07;;;;;;;3.40;3.10;;;;;;;4.94;86.41;100219.72;5005279;28;20232;-75
2021/12/31 08:17:32;;;;;;;4.13;2.60;;;;;;;4.93;86.69;100225.81;5001864;28;20212;-75
2021/12/31 08:19:57;;;;;;;3.80;2.70;;;;;;;4.95;86.64;100218.81;5005095;28;20202;-75
2021/12/31 08:22:24;;;;;;;4.00;2.90;;;;;;;4.99;86.71;100222.16;5000692;28;20710;-75
2021/12/31 08:24:50;;;;;;;4.95;3.75;;;;;;;5.02;86.78;100230.75;5005735;28;20218;-75
2021/12/31 08:27:15;;;;;;;4.23;3.43;;;;;;;5.08;86.61;100229.69;5011653;28;20308;-75
2021/12/31 08:29:40;;;;;;;5.93;5.33;;;;;;;5.15;86.63;100217.31;5009645;28;20457;-75
2021/12/31 08:32:06;;;;;;;11.90;10.63;;;;;;;5.29;87.44;100215.13;5014058;28;20811;-75
2021/12/31 08:34:32;;;;;;;11.40;9.70;;;;;;;5.32;87.38;100205.47;5011897;28;20590;-75
2021/12/31 08:36:57;;;;;;;12.37;8.90;;;;;;;5.38;87.40;100209.63;5012995;28;20203;-75
2021/12/31 08:39:23;;;;;;;11.17;9.20;;;;;;;5.46;87.38;100217.19;5023408;28;20210;-75
2021/12/31 08:41:48;;;;;;;15.63;12.50;;;;;;;5.53;87.06;100214.31;5015612;28;20332;-75
2021/12/31 08:44:14;;;;;;;15.00;13.23;;;;;;;5.61;86.92;100203.66;5011194;28;20241;-76
2021/12/31 08:46:41;;;;;;;12.67;11.43;;;;;;;5.69;86.67;100219.03;5010592;28;20536;-75
2021/12/31 08:49:07;;;;;;;15.10;11.40;;;;;;;5.76;86.63;100223.13;5015454;28;20516;-75
2021/12/31 08:51:33;;;;;;;11.15;9.75;;;;;;;5.84;86.79;100235.91;5016504;28;20226;-76
2021/12/31 08:53:59;;;;;;;6.90;6.20;;;;;;;5.94;86.93;100240.81;5014574;28;20705;-75
2021/12/31 08:56:24;;;;;;;10.10;5.90;;;;;;;6.30;87.11;100239.56;5007981;28;20321;-76
2021/12/31 08:58:49;;;;;;;12.43;6.93;;;;;;;6.86;86.24;100237.47;5009414;28;20237;-76
2021/12/31 09:01:15;;;;;;;14.60;6.57;;;;;;;8.03;84.43;100227.47;5009036;28;20271;-77
2021/12/31 09:03:40;;;;;;;6.30;3.87;;;;;;;9.65;80.45;100213.84;5006945;28;20261;-75
2021/12/31 09:06:07;;;;;;;6.10;5.53;;;;;;;11.27;75.09;100212.22;5006557;28;20574;-77
2021/12/31 09:08:34;;;;;;;12.35;10.00;;;;;;;12.46;70.98;100195.56;5008450;28;20207;-76
2021/12/31 09:11:00;;;;;;;3.40;3.10;;;;;;;13.47;67.54;100189.09;5004076;28;20776;-76
2021/12/31 09:13:27;;;;;;;4.83;4.27;;;;;;;14.28;64.56;100189.78;5024965;28;20211;-76
2021/12/31 09:15:52;;;;;;;8.68;6.07;;;;;;;14.63;62.65;100181.19;5010219;28;20825;-76
2021/12/31 09:18:18;;;;;;;7.37;5.03;;;;;;;14.70;62.00;100175.38;5013208;28;20195;-76
2021/12/31 09:20:43;;;;;;;4.80;3.50;;;;;;;15.00;61.23;100168.81;5011074;28;20711;-76
2021/12/31 09:23:09;;;;;;;10.10;6.53;;;;;;;14.82;61.01;100163.03;5012767;28;20531;-76
2021/12/31 09:25:34;;;;;;;4.43;2.50;;;;;;;13.82;62.90;100163.91;5024274;28;20722;-76
2021/12/31 09:28:00;;;;;;;7.03;3.97;;;;;;;12.90;65.40;100188.41;5022301;28;20225;-76
2021/12/31 09:30:26;;;;;;;3.50;2.90;;;;;;;12.08;67.83;100190.84;5015185;28;20297;-76
2021/12/31 09:32:51;;;;;;;3.33;2.70;;;;;;;11.48;69.47;100204.03;5013408;28;20223;-75
2021/12/31 09:35:17;;;;;;;6.33;3.13;;;;;;;11.02;71.02;100199.63;5006211;28;20214;-75
2021/12/31 09:37:43;;;;;;;4.10;2.90;;;;;;;10.62;72.39;100196.56;5004795;28;20229;-76
2021/12/31 09:40:09;;;;;;;8.00;4.70;;;;;;;10.24;73.60;100185.44;5017501;28;20205;-76
2021/12/31 09:42:36;;;;;;;6.25;4.35;;;;;;;10.06;74.28;100196.91;5011980;28;20585;-76
2021/12/31 09:45:03;;;;;;;10.20;4.78;;;;;;;9.96;74.51;100194.78;5012241;28;20205;-76
2021/12/31 09:47:28;;;;;;;141.38;36.90;;;;;;;9.75;75.69;100204.59;5004750;28;20457;-73
2021/12/31 09:49:54;;;;;;;109.57;29.97;;;;;;;9.47;76.60;100206.88;5001858;28;20243;-75
2021/12/31 09:52:20;;;;;;;612.80;136.53;;;;;;;9.36;77.60;100199.53;5009517;28;20314;-74
2021/12/31 09:54:48;;;;;;;290.65;69.53;;;;;;;9.37;78.05;100193.41;5018149;28;20214;-76
2021/12/31 09:57:19;;;;;;;209.45;43.45;;;;;;;9.98;76.89;100189.44;5013798;28;20240;-74
2021/12/31 09:59:46;;;;;;;108.60;24.58;;;;;;;11.21;73.06;100188.06;5019649;28;20265;-74
2021/12/31 10:02:12;;;;;;;9.60;6.78;;;;;;;12.45;69.06;100185.97;5015444;28;20202;-76
2021/12/31 10:04:59;;;;;;;11.48;6.80;;;;;;;13.45;65.56;100201.53;5011350;28;20209;-74
2021/12/31 10:07:28;;;;;;;8.57;4.07;;;;;;;13.83;64.16;100202.56;5005049;28;20650;-75
2021/12/31 10:10:13;;;;;;;5.07;3.85;;;;;;;13.85;64.01;100190.09;5022871;28;20205;-75
2021/12/31 10:12:45;;;;;;;12.05;5.03;;;;;;;13.25;65.49;100183.50;5010280;28;20218;-76
2021/12/31 10:15:11;;;;;;;16.48;5.60;;;;;;;12.36;68.15;100190.00;4988673;28;20198;-75
2021/12/31 10:17:36;;;;;;;6.90;5.40;;;;;;;11.65;70.71;100196.00;5006442;28;20249;-75
2021/12/31 10:20:03;;;;;;;8.90;5.57;;;;;;;11.20;72.50;100192.44;5008101;28;20766;-75
2021/12/31 10:22:28;;;;;;;6.57;4.68;;;;;;;11.02;73.64;100193.53;5007141;28;20229;-75
2021/12/31 10:24:54;;;;;;;11.20;6.67;;;;;;;10.74;74.37;100189.78;5005345;28;20231;-75
2021/12/31 10:27:20;;;;;;;14.20;7.20;;;;;;;10.26;76.33;100201.97;5009981;28;20207;-75
2021/12/31 10:29:57;;;;;;;24.42;8.57;;;;;;;9.88;78.02;100209.19;5006273;28;20221;-75
2021/12/31 10:32:26;;;;;;;14.10;9.18;;;;;;;9.80;78.71;100211.38;5006737;28;20486;-75
2021/12/31 10:34:52;;;;;;;10.57;7.68;;;;;;;9.55;79.64;100202.09;5004050;28;20249;-75
2021/12/31 10:37:24;;;;;;;8.47;5.90;;;;;;;9.46;80.42;100195.56;5003189;28;20289;-77
2021/12/31 10:39:58;;;;;;;8.32;6.22;;;;;;;9.46;80.63;100178.97;5006319;28;20488;-77
2021/12/31 10:42:32;;;;;;;7.10;6.40;;;;;;;9.46;80.49;100181.59;5006099;28;20237;-77
2021/12/31 10:44:58;;;;;;;13.98;6.22;;;;;;;9.48;80.60;100180.59;5000238;28;20205;-78
2021/12/31 10:47:30;;;;;;;6.20;5.60;;;;;;;9.49;80.68;100179.66;5004986;28;20195;-76
2021/12/31 10:49:55;;;;;;;6.72;5.18;;;;;;;9.48;81.00;100170.09;5029398;28;20229;-74
2021/12/31 10:52:29;;;;;;;6.03;5.03;;;;;;;9.44;81.78;100167.72;5010535;28;20608;-76
2021/12/31 10:55:15;;;;;;;6.45;4.90;;;;;;;9.33;82.21;100178.72;5007309;28;20502;-74
2021/12/31 10:57:41;;;;;;;8.63;7.70;;;;;;;9.27;83.07;100190.38;5003212;28;20301;-77
2021/12/31 11:00:09;;;;;;;8.77;7.38;;;;;;;9.19;83.53;100187.28;5006932;28;20198;-75
2021/12/31 11:02:36;;;;;;;17.92;12.25;;;;;;;9.34;83.71;100183.03;5009435;28;20489;-76
2021/12/31 11:05:02;;;;;;;29.40;15.38;;;;;;;9.29;84.02;100170.19;5029860;28;20210;-75
2021/12/31 11:07:28;;;;;;;33.47;20.88;;;;;;;9.30;83.91;100171.03;5017316;28;20217;-74
2021/12/31 11:09:59;;;;;;;30.40;21.40;;;;;;;9.33;83.89;100181.34;5007399;28;20547;-76
2021/12/31 11:12:27;;;;;;;20.45;13.02;;;;;;;9.39;83.96;100169.72;5011147;28;20673;-77
2021/12/31 11:14:54;;;;;;;6.88;5.65;;;;;;;9.40;84.24;100156.53;5011910;28;20257;-76
2021/12/31 11:17:20;;;;;;;6.40;5.60;;;;;;;9.42;84.38;100157.28;5010280;28;20202;-76
2021/12/31 11:19:49;;;;;;;11.05;7.03;;;;;;;9.47;84.44;100157.91;5008076;28;20202;-77
2021/12/31 11:22:17;;;;;;;10.32;9.23;;;;;;;9.46;84.75;100148.34;5020149;28;20238;-75
2021/12/31 11:24:44;;;;;;;12.98;9.57;;;;;;;9.48;84.75;100138.66;5013084;28;20232;-74
2021/12/31 11:27:28;;;;;;;17.92;13.32;;;;;;;9.49;85.41;100142.94;5016250;28;20203;-76
2021/12/31 11:29:55;;;;;;;15.27;10.15;;;;;;;9.49;85.54;100155.22;5010373;28;20652;-75